createdAt,value
2023-03-04T00:00:53.604Z,5.59
2023-03-04T00:03:24.036Z,5.60
2023-03-04T00:05:52.419Z,5.60
2023-03-04T00:08:20.952Z,5.61
2023-03-04T00:10:49.562Z,5.63
2023-03-04T00:13:22.121Z,5.60
2023-03-04T00:15:54.750Z,5.56
2023-03-04T00:18:23.165Z,5.56
2023-03-04T00:20:52.005Z,5.58
2023-03-04T00:23:20.682Z,5.55
2023-03-04T00:25:50.293Z,5.55
2023-03-04T00:28:21.853Z,5.57
2023-03-04T00:30:50.411Z,5.56
2023-03-04T00:33:19.406Z,5.52
2023-03-04T00:35:47.877Z,5.49
2023-03-04T00:38:16.447Z,5.46
2023-03-04T00:40:45.141Z,5.49
2023-03-04T00:43:13.432Z,5.52
2023-03-04T00:45:43.626Z,5.53
2023-03-04T00:48:13.277Z,5.51
2023-03-04T00:50:42.535Z,5.48
2023-03-04T00:53:12.025Z,5.51
2023-03-04T00:55:40.556Z,5.53
2023-03-04T00:58:08.893Z,5.53
2023-03-04T01:00:37.658Z,5.48
2023-03-04T01:03:07.662Z,5.51
2023-03-04T01:05:36.166Z,5.47
2023-03-04T01:08:05.560Z,5.52
2023-03-04T01:10:34.297Z,5.50
2023-03-04T01:13:02.962Z,5.51
2023-03-04T01:15:31.547Z,5.49
2023-03-04T01:17:59.922Z,5.50
2023-03-04T01:20:29.993Z,5.49
2023-03-04T01:22:58.355Z,5.50
2023-03-04T01:25:26.861Z,5.48
2023-03-04T01:27:55.574Z,5.49
2023-03-04T01:30:24.038Z,5.48
2023-03-04T01:32:52.752Z,5.48
2023-03-04T01:35:21.216Z,5.49
2023-03-04T01:37:51.055Z,5.48
2023-03-04T01:40:19.810Z,5.47
2023-03-04T01:42:48.349Z,5.43
2023-03-04T01:45:20.690Z,5.46
2023-03-04T01:47:50.687Z,5.42
2023-03-04T01:50:23.896Z,5.41
2023-03-04T01:52:53.926Z,5.41
2023-03-04T01:55:24.804Z,5.37
2023-03-04T01:57:54.014Z,5.33
2023-03-04T02:00:27.353Z,5.36
2023-03-04T02:02:59.226Z,5.29
2023-03-04T02:05:30.045Z,5.30
2023-03-04T02:08:01.962Z,5.24
2023-03-04T02:10:30.492Z,5.17
2023-03-04T02:12:59.958Z,5.20
2023-03-04T02:15:29.414Z,5.16
2023-03-04T02:17:57.881Z,5.15
2023-03-04T02:20:37.513Z,5.10
2023-03-04T02:23:13.737Z,5.10
2023-03-04T02:25:47.460Z,5.10
2023-03-04T02:28:18.184Z,5.13
2023-03-04T02:30:46.968Z,5.10
2023-03-04T02:33:18.918Z,5.03
2023-03-04T02:35:48.655Z,5.03
2023-03-04T02:38:17.539Z,5.06
2023-03-04T02:40:51.072Z,5.09
2023-03-04T02:43:21.611Z,5.12
2023-03-04T02:45:52.016Z,5.11
2023-03-04T02:48:24.310Z,5.12
2023-03-04T02:50:54.578Z,5.12
2023-03-04T02:53:23.183Z,5.08
2023-03-04T02:55:51.905Z,5.06
2023-03-04T02:58:22.282Z,5.07
2023-03-04T03:00:50.736Z,5.05
2023-03-04T03:03:19.065Z,5.00
2023-03-04T03:05:47.557Z,4.93
2023-03-04T03:08:15.839Z,4.96
2023-03-04T03:10:44.691Z,4.90
2023-03-04T03:13:13.048Z,4.92
2023-03-04T03:15:43.502Z,4.89
2023-03-04T03:18:12.505Z,4.91
2023-03-04T03:20:40.982Z,4.90
2023-03-04T03:23:09.829Z,4.92
2023-03-04T03:25:40.859Z,4.93
2023-03-04T03:28:09.215Z,4.91
2023-03-04T03:30:37.547Z,4.86
2023-03-04T03:33:07.269Z,4.86
2023-03-04T03:35:35.902Z,4.85
2023-03-04T03:38:04.904Z,4.87
2023-03-04T03:40:33.358Z,4.85
2023-03-04T03:43:01.916Z,4.84
2023-03-04T03:45:30.480Z,4.77
2023-03-04T03:47:58.986Z,4.75
2023-03-04T03:50:29.809Z,4.78
2023-03-04T03:52:59.001Z,4.78
2023-03-04T03:55:27.551Z,4.79
2023-03-04T03:57:56.011Z,4.78
2023-03-04T04:00:24.734Z,4.82
2023-03-04T04:02:54.793Z,4.79
2023-03-04T04:05:23.228Z,4.82
2023-03-04T04:07:54.144Z,4.83
2023-03-04T04:10:23.220Z,4.83
2023-03-04T04:12:51.866Z,4.83
2023-03-04T04:15:23.823Z,4.79
2023-03-04T04:17:52.314Z,4.81
2023-03-04T04:20:21.309Z,4.71
2023-03-04T04:22:50.029Z,4.73
2023-03-04T04:25:19.883Z,4.71
2023-03-04T04:27:48.445Z,4.76
2023-03-04T04:30:20.526Z,4.71
2023-03-04T04:32:49.179Z,4.68
2023-03-04T04:35:17.541Z,4.64
2023-03-04T04:37:45.757Z,4.71
2023-03-04T04:40:14.836Z,4.68
2023-03-04T04:42:44.853Z,4.71
2023-03-04T04:45:14.516Z,4.65
2023-03-04T04:47:43.057Z,4.68
2023-03-04T04:50:12.766Z,4.60
2023-03-04T04:52:41.290Z,4.59
2023-03-04T04:55:10.881Z,4.60
2023-03-04T04:57:40.028Z,4.59
2023-03-04T05:00:11.732Z,4.59
2023-03-04T05:02:40.015Z,4.63
2023-03-04T05:05:09.490Z,4.60
2023-03-04T05:07:39.010Z,4.61
2023-03-04T05:10:08.397Z,4.58
2023-03-04T05:12:37.046Z,4.59
2023-03-04T05:15:06.366Z,4.59
2023-03-04T05:17:36.778Z,4.56
2023-03-04T05:20:07.498Z,4.58
2023-03-04T05:22:38.891Z,4.58
2023-03-04T05:25:08.548Z,4.54
2023-03-04T05:27:36.922Z,4.54
2023-03-04T05:30:06.070Z,4.55
2023-03-04T05:32:36.791Z,4.54
2023-03-04T05:35:05.794Z,4.55
2023-03-04T05:37:34.250Z,4.52
2023-03-04T05:40:02.588Z,4.53
2023-03-04T05:42:30.986Z,4.53
2023-03-04T05:44:59.309Z,4.52
2023-03-04T05:47:28.037Z,4.53
2023-03-04T05:49:58.319Z,4.54
2023-03-04T05:52:27.022Z,4.51
2023-03-04T05:54:55.495Z,4.49
2023-03-04T05:57:24.110Z,4.49
2023-03-04T05:59:52.729Z,4.51
2023-03-04T06:02:21.389Z,4.56
2023-03-04T06:04:49.914Z,4.51
2023-03-04T06:07:19.871Z,4.49
2023-03-04T06:09:48.222Z,4.47
2023-03-04T06:12:16.480Z,4.44
2023-03-04T06:14:44.770Z,4.45
2023-03-04T06:17:13.410Z,4.44
2023-03-04T06:19:42.639Z,4.44
2023-03-04T06:22:11.970Z,4.47
2023-03-04T06:24:42.350Z,4.49
2023-03-04T06:27:10.870Z,4.48
2023-03-04T06:29:39.410Z,4.43
2023-03-04T06:32:08.134Z,4.45
2023-03-04T06:34:37.556Z,4.39
2023-03-04T06:37:06.384Z,4.35
2023-03-04T06:39:35.075Z,4.41
2023-03-04T06:42:05.295Z,4.40
2023-03-04T06:44:33.764Z,4.40
2023-03-04T06:47:02.682Z,4.41
2023-03-04T06:49:31.190Z,4.41
2023-03-04T06:52:00.033Z,4.39
2023-03-04T06:54:28.862Z,4.38
2023-03-04T06:56:57.324Z,4.38
2023-03-04T06:59:27.325Z,4.37
2023-03-04T07:01:56.341Z,4.34
2023-03-04T07:04:24.940Z,4.30
2023-03-04T07:06:53.457Z,4.33
2023-03-04T07:09:22.186Z,4.34
2023-03-04T07:11:50.430Z,4.33
2023-03-04T07:14:22.390Z,4.33
2023-03-04T07:16:53.859Z,4.36
2023-03-04T07:19:22.152Z,4.40
2023-03-04T07:21:51.248Z,4.38
2023-03-04T07:24:19.650Z,4.36
2023-03-04T07:26:48.231Z,4.39
2023-03-04T07:29:16.757Z,4.38
2023-03-04T07:31:45.600Z,4.38
2023-03-04T07:34:17.361Z,4.38
2023-03-04T07:36:46.115Z,4.33
2023-03-04T07:39:15.010Z,4.36
2023-03-04T07:41:43.746Z,4.34
2023-03-04T07:44:13.679Z,4.39
2023-03-04T07:46:42.359Z,4.33
2023-03-04T07:49:15.401Z,4.34
2023-03-04T07:51:43.990Z,4.34
2023-03-04T07:54:13.085Z,4.37
2023-03-04T07:56:41.831Z,4.38
2023-03-04T07:59:10.674Z,4.39
2023-03-04T08:01:40.208Z,4.38
2023-03-04T08:04:09.891Z,4.38
2023-03-04T08:06:43.660Z,4.41
2023-03-04T08:09:13.723Z,4.42
2023-03-04T08:11:44.559Z,4.48
2023-03-04T08:14:14.048Z,4.48
2023-03-04T08:16:43.074Z,4.50
2023-03-04T08:19:13.688Z,4.43
2023-03-04T08:21:43.586Z,4.41
2023-03-04T08:24:12.933Z,4.46
2023-03-04T08:26:44.843Z,4.44
2023-03-04T08:29:15.539Z,4.49
2023-03-04T08:31:48.798Z,4.43
2023-03-04T08:34:18.486Z,4.49
2023-03-04T08:36:48.286Z,4.51
2023-03-04T08:39:18.738Z,4.47
2023-03-04T08:41:48.425Z,4.51
2023-03-04T08:44:17.466Z,4.51
2023-03-04T08:46:46.915Z,4.51
2023-03-04T08:49:16.366Z,4.51
2023-03-04T08:51:45.648Z,4.49
2023-03-04T08:54:17.320Z,4.46
2023-03-04T08:56:45.762Z,4.47
2023-03-04T08:59:14.268Z,4.49
2023-03-04T09:01:42.806Z,4.51
2023-03-04T09:04:14.571Z,4.55
2023-03-04T09:06:43.333Z,4.50
2023-03-04T09:09:12.298Z,4.49
2023-03-04T09:11:42.440Z,4.46
2023-03-04T09:14:13.492Z,4.51
2023-03-04T09:16:42.088Z,4.53
2023-03-04T09:19:10.601Z,4.61
2023-03-04T09:21:39.180Z,4.63
2023-03-04T09:24:08.023Z,4.70
2023-03-04T09:26:36.615Z,4.70
2023-03-04T09:29:06.766Z,4.71
2023-03-04T09:31:36.399Z,4.71
2023-03-04T09:34:07.877Z,4.66
2023-03-04T09:36:36.605Z,4.60
2023-03-04T09:39:09.540Z,4.66
2023-03-04T09:41:43.609Z,4.68
2023-03-04T09:44:24.518Z,4.62
2023-03-04T09:46:58.443Z,4.62
2023-03-04T09:49:28.758Z,4.57
2023-03-04T09:52:04.234Z,4.64
2023-03-04T09:54:53.537Z,4.64
2023-03-04T09:57:42.302Z,4.66
2023-03-04T10:00:20.357Z,4.71
2023-03-04T10:03:11.328Z,4.67
2023-03-04T10:05:46.085Z,4.70
2023-03-04T10:08:29.304Z,4.70
2023-03-04T10:11:01.174Z,4.64
2023-03-04T10:13:41.443Z,4.61
2023-03-04T10:16:18.241Z,4.62
2023-03-04T10:18:54.306Z,4.65
2023-03-04T10:21:28.585Z,4.69
2023-03-04T10:23:59.673Z,4.72
2023-03-04T10:26:33.744Z,4.73
2023-03-04T10:29:07.316Z,4.74
2023-03-04T10:31:44.412Z,4.77
2023-03-04T10:34:16.645Z,4.76
2023-03-04T10:36:59.474Z,4.81
2023-03-04T10:39:33.590Z,4.85
2023-03-04T10:42:04.143Z,4.89
2023-03-04T10:44:34.680Z,4.97
2023-03-04T10:47:11.656Z,4.99
2023-03-04T10:49:53.219Z,5.03
2023-03-04T10:52:30.929Z,5.16
2023-03-04T10:55:21.470Z,5.20
2023-03-04T10:57:54.807Z,5.26
2023-03-04T11:00:33.648Z,5.24
2023-03-04T11:03:29.354Z,5.23
2023-03-04T11:06:12.313Z,5.23
2023-03-04T11:08:43.963Z,5.16
2023-03-04T11:11:25.446Z,5.21
2023-03-04T11:13:57.702Z,5.16
2023-03-04T11:16:29.968Z,5.17
2023-03-04T11:19:07.832Z,5.20
2023-03-04T11:21:42.150Z,5.28
2023-03-04T11:24:29.260Z,5.26
2023-03-04T11:27:03.100Z,5.16
2023-03-04T11:29:37.196Z,5.20
2023-03-04T11:32:13.434Z,5.22
2023-03-04T11:34:52.089Z,5.28
2023-03-04T11:37:26.427Z,5.37
2023-03-04T11:39:58.509Z,5.33
2023-03-04T11:42:38.818Z,5.28
2023-03-04T11:45:27.906Z,5.24
2023-03-04T11:48:09.223Z,5.29
2023-03-04T11:50:50.682Z,5.43
2023-03-04T11:53:42.214Z,5.37
2023-03-04T11:56:34.442Z,5.32
2023-03-04T11:59:31.920Z,5.29
2023-03-04T12:02:13.472Z,5.38
2023-03-04T12:05:18.789Z,5.45
2023-03-04T12:08:10.346Z,5.52
2023-03-04T12:10:43.416Z,5.52
2023-03-04T12:13:37.189Z,5.49
2023-03-04T12:16:18.318Z,5.51
2023-03-04T12:19:06.499Z,5.55
2023-03-04T12:21:56.793Z,5.65
2023-03-04T12:25:09.980Z,5.68
2023-03-04T12:27:48.235Z,5.63
2023-03-04T12:30:29.696Z,5.65
2023-03-04T12:33:09.675Z,5.71
2023-03-04T12:35:43.386Z,5.74
2023-03-04T12:38:32.996Z,5.74
2023-03-04T12:41:15.202Z,5.80
2023-03-04T12:43:52.844Z,5.83
2023-03-04T12:46:33.355Z,5.88
2023-03-04T12:49:24.688Z,5.82
2023-03-04T12:52:04.399Z,5.72
2023-03-04T12:54:36.240Z,5.75
2023-03-04T12:57:13.254Z,5.79
2023-03-04T12:59:47.118Z,5.84
2023-03-04T13:02:41.423Z,5.86
2023-03-04T13:05:25.073Z,5.93
2023-03-04T13:08:03.909Z,6.03
2023-03-04T13:10:34.642Z,5.88
2023-03-04T13:13:05.130Z,5.90
2023-03-04T13:15:37.940Z,5.73
2023-03-04T13:18:35.679Z,5.77
2023-03-04T13:21:23.109Z,5.79
2023-03-04T13:23:53.452Z,5.81
2023-03-04T13:26:34.879Z,5.83
2023-03-04T13:29:35.439Z,5.95
2023-03-04T13:32:06.742Z,5.94
2023-03-04T13:34:52.062Z,5.86
2023-03-04T13:37:35.990Z,5.91
2023-03-04T13:40:40.964Z,5.87
2023-03-04T13:43:30.217Z,5.88
2023-03-04T13:46:31.891Z,5.80
2023-03-04T13:49:04.562Z,5.80
2023-03-04T13:51:38.456Z,5.88
2023-03-04T13:54:17.089Z,5.91
2023-03-04T13:56:47.912Z,5.88
2023-03-04T13:59:24.946Z,5.99
2023-03-04T14:02:16.079Z,6.13
2023-03-04T14:04:46.679Z,6.08
2023-03-04T14:07:27.768Z,6.03
2023-03-04T14:09:59.679Z,6.14
2023-03-04T14:12:30.565Z,6.14
2023-03-04T14:15:02.170Z,6.05
2023-03-04T14:17:37.300Z,6.04
2023-03-04T14:20:07.792Z,5.94
2023-03-04T14:22:41.836Z,5.89
2023-03-04T14:25:26.040Z,5.96
2023-03-04T14:28:05.249Z,6.02
2023-03-04T14:30:43.660Z,6.07
2023-03-04T14:33:22.514Z,6.10
2023-03-04T14:35:55.388Z,6.10
2023-03-04T14:38:27.585Z,6.05
2023-03-04T14:41:01.721Z,5.98
2023-03-04T14:43:32.114Z,5.92
2023-03-04T14:46:04.010Z,5.83
2023-03-04T14:48:36.406Z,5.78
2023-03-04T14:51:05.945Z,5.74
2023-03-04T14:53:36.144Z,5.76
2023-03-04T14:56:07.602Z,5.67
2023-03-04T14:58:37.605Z,5.68
2023-03-04T15:01:17.334Z,5.68
2023-03-04T15:03:57.573Z,5.65
2023-03-04T15:06:28.313Z,5.65
2023-03-04T15:08:59.281Z,5.57
2023-03-04T15:11:29.728Z,5.52
2023-03-04T15:14:00.153Z,5.51
2023-03-04T15:16:30.813Z,5.50
2023-03-04T15:19:03.844Z,5.60
2023-03-04T15:21:37.138Z,5.57
2023-03-04T15:24:07.115Z,5.56
2023-03-04T15:26:41.412Z,5.53
2023-03-04T15:29:16.645Z,5.42
2023-03-04T15:31:48.588Z,5.38
2023-03-04T15:34:20.383Z,5.45
2023-03-04T15:36:51.881Z,5.37
2023-03-04T15:39:23.613Z,5.41
2023-03-04T15:41:52.174Z,5.39
2023-03-04T15:44:21.089Z,5.38
2023-03-04T15:46:49.442Z,5.35
2023-03-04T15:49:22.607Z,5.39
2023-03-04T15:51:51.198Z,5.39
2023-03-04T15:54:19.750Z,5.41
2023-03-04T15:56:48.232Z,5.41
2023-03-04T15:59:19.120Z,5.37
2023-03-04T16:01:47.727Z,5.27
2023-03-04T16:04:17.982Z,5.30
2023-03-04T16:06:50.778Z,5.28
2023-03-04T16:09:23.123Z,5.36
2023-03-04T16:11:52.930Z,5.25
2023-03-04T16:14:21.462Z,5.31
2023-03-04T16:16:50.843Z,5.34
2023-03-04T16:19:19.292Z,5.29
2023-03-04T16:21:49.563Z,5.26
2023-03-04T16:24:20.481Z,5.19
2023-03-04T16:26:50.046Z,5.13
2023-03-04T16:29:18.560Z,5.14
2023-03-04T16:31:46.973Z,5.09
2023-03-04T16:34:15.662Z,5.06
2023-03-04T16:36:44.315Z,5.10
2023-03-04T16:39:21.364Z,5.06
2023-03-04T16:41:50.496Z,5.06
2023-03-04T16:44:19.187Z,5.05
2023-03-04T16:46:47.932Z,5.02
2023-03-04T16:49:16.220Z,4.98
2023-03-04T16:51:48.563Z,4.94
2023-03-04T16:54:20.705Z,4.89
2023-03-04T16:56:49.199Z,4.90
2023-03-04T16:59:18.895Z,4.92
2023-03-04T17:01:47.634Z,4.96
2023-03-04T17:04:16.582Z,4.97
2023-03-04T17:06:45.246Z,4.87
2023-03-04T17:09:13.517Z,4.81
2023-03-04T17:11:44.430Z,4.83
2023-03-04T17:14:13.377Z,4.82
2023-03-04T17:16:42.030Z,4.73
2023-03-04T17:19:10.350Z,4.74
2023-03-04T17:21:38.964Z,4.76
2023-03-04T17:24:11.132Z,4.84
2023-03-04T17:26:39.985Z,4.82
2023-03-04T17:29:10.254Z,4.88
2023-03-04T17:31:39.344Z,4.91
2023-03-04T17:34:07.748Z,4.83
2023-03-04T17:36:36.413Z,4.82
2023-03-04T17:39:06.364Z,4.77
2023-03-04T17:41:36.320Z,4.78
2023-03-04T17:44:06.252Z,4.77
2023-03-04T17:46:36.279Z,4.72
2023-03-04T17:49:04.878Z,4.71
2023-03-04T17:51:36.428Z,4.75
2023-03-04T17:54:05.783Z,4.75
2023-03-04T17:56:35.980Z,4.72
2023-03-04T17:59:08.448Z,4.73
2023-03-04T18:01:38.673Z,4.72
2023-03-04T18:04:07.725Z,4.76
2023-03-04T18:06:36.003Z,4.70
2023-03-04T18:09:04.877Z,4.69
2023-03-04T18:11:36.508Z,4.66
2023-03-04T18:14:05.710Z,4.64
2023-03-04T18:16:34.643Z,4.63
2023-03-04T18:19:04.916Z,4.59
2023-03-04T18:21:34.341Z,4.53
2023-03-04T18:24:03.763Z,4.47
2023-03-04T18:26:32.721Z,4.47
2023-03-04T18:29:01.310Z,4.39
2023-03-04T18:31:32.553Z,4.32
2023-03-04T18:34:05.189Z,4.31
2023-03-04T18:36:34.663Z,4.28
2023-03-04T18:39:05.652Z,4.32
2023-03-04T18:41:34.571Z,4.37
2023-03-04T18:44:03.450Z,4.38
2023-03-04T18:46:40.978Z,4.39
2023-03-04T18:49:12.151Z,4.41
2023-03-04T18:51:40.504Z,4.40
2023-03-04T18:54:08.868Z,4.38
2023-03-04T18:56:46.481Z,4.30
2023-03-04T18:59:17.961Z,4.26
2023-03-04T19:01:47.327Z,4.25
2023-03-04T19:04:19.803Z,4.21
2023-03-04T19:06:48.666Z,4.22
2023-03-04T19:09:16.930Z,4.21
2023-03-04T19:11:45.336Z,4.15
2023-03-04T19:14:13.851Z,4.15
2023-03-04T19:16:42.456Z,4.18
2023-03-04T19:19:10.839Z,4.12
2023-03-04T19:21:42.125Z,4.13
2023-03-04T19:24:10.655Z,4.14
2023-03-04T19:26:40.356Z,4.15
2023-03-04T19:29:08.894Z,4.18
2023-03-04T19:31:41.473Z,4.19
2023-03-04T19:34:10.134Z,4.33
2023-03-04T19:36:38.972Z,4.30
2023-03-04T19:39:10.778Z,4.33
2023-03-04T19:41:41.478Z,4.34
2023-03-04T19:44:09.947Z,4.30
2023-03-04T19:46:38.520Z,4.31
2023-03-04T19:49:07.194Z,4.32
2023-03-04T19:51:35.913Z,4.33
2023-03-04T19:54:04.865Z,4.28
2023-03-04T19:56:35.242Z,4.27
2023-03-04T19:59:03.803Z,4.28
2023-03-04T20:01:34.148Z,4.25
2023-03-04T20:04:05.489Z,4.17
2023-03-04T20:06:37.619Z,4.17
2023-03-04T20:09:07.211Z,4.17
2023-03-04T20:11:47.354Z,4.13
2023-03-04T20:14:24.728Z,4.13
2023-03-04T20:16:53.147Z,4.11
2023-03-04T20:19:21.972Z,4.08
2023-03-04T20:21:51.471Z,4.09
2023-03-04T20:24:20.503Z,4.07
2023-03-04T20:26:51.269Z,4.07
2023-03-04T20:29:20.560Z,4.10
2023-03-04T20:31:49.495Z,4.12
2023-03-04T20:34:18.096Z,4.08
2023-03-04T20:36:46.388Z,4.10
2023-03-04T20:39:28.206Z,4.07
2023-03-04T20:42:00.167Z,4.02
2023-03-04T20:44:28.930Z,4.01
2023-03-04T20:46:58.631Z,4.01
2023-03-04T20:49:29.351Z,4.02
2023-03-04T20:52:03.364Z,4.03
2023-03-04T20:54:32.063Z,4.01
2023-03-04T20:57:02.135Z,3.97
2023-03-04T20:59:30.580Z,3.96
2023-03-04T21:01:59.949Z,3.92
2023-03-04T21:04:28.833Z,3.91
2023-03-04T21:06:57.529Z,3.88
2023-03-04T21:09:27.322Z,3.86
2023-03-04T21:11:56.212Z,3.86
2023-03-04T21:14:27.966Z,3.88
2023-03-04T21:16:58.571Z,3.90
2023-03-04T21:19:29.042Z,3.85
2023-03-04T21:21:58.659Z,3.83
2023-03-04T21:24:29.386Z,3.86
2023-03-04T21:27:01.798Z,3.83
2023-03-04T21:29:32.400Z,3.89
2023-03-04T21:32:20.923Z,3.91
2023-03-04T21:34:52.458Z,3.84
2023-03-04T21:37:24.007Z,3.84
2023-03-04T21:39:52.471Z,3.83
2023-03-04T21:42:21.053Z,3.80
2023-03-04T21:44:52.001Z,3.81
2023-03-04T21:47:21.514Z,3.78
2023-03-04T21:49:50.690Z,3.76
2023-03-04T21:52:19.649Z,3.78
2023-03-04T21:54:49.714Z,3.75
2023-03-04T21:57:18.601Z,3.73
2023-03-04T21:59:47.675Z,3.71
2023-03-04T22:02:19.619Z,3.69
2023-03-04T22:04:48.854Z,3.66
2023-03-04T22:07:18.335Z,3.64
2023-03-04T22:09:47.052Z,3.64
2023-03-04T22:12:18.247Z,3.66
2023-03-04T22:14:47.384Z,3.63
2023-03-04T22:17:17.773Z,3.62
2023-03-04T22:19:46.117Z,3.61
2023-03-04T22:22:18.234Z,3.61
2023-03-04T22:24:46.847Z,3.61
2023-03-04T22:27:18.036Z,3.53
2023-03-04T22:29:48.485Z,3.56
2023-03-04T22:32:18.726Z,3.55
2023-03-04T22:34:47.190Z,3.54
2023-03-04T22:37:15.485Z,3.52
2023-03-04T22:39:43.948Z,3.51
2023-03-04T22:42:12.595Z,3.53
2023-03-04T22:44:41.029Z,3.60
2023-03-04T22:47:09.479Z,3.56
2023-03-04T22:49:41.348Z,3.57
2023-03-04T22:52:09.733Z,3.52
2023-03-04T22:54:38.743Z,3.54
2023-03-04T22:57:07.379Z,3.53
2023-03-04T22:59:36.221Z,3.57
2023-03-04T23:02:05.068Z,3.54
2023-03-04T23:04:33.878Z,3.57
2023-03-04T23:07:04.155Z,3.59
2023-03-04T23:09:32.839Z,3.59
2023-03-04T23:12:01.393Z,3.53
2023-03-04T23:14:29.953Z,3.53
2023-03-04T23:16:58.658Z,3.51
2023-03-04T23:19:27.198Z,3.48
2023-03-04T23:21:55.904Z,3.46
2023-03-04T23:24:26.775Z,3.43
2023-03-04T23:26:55.385Z,3.43
2023-03-04T23:29:24.308Z,3.39
2023-03-04T23:31:53.023Z,3.43
2023-03-04T23:34:22.279Z,3.40
2023-03-04T23:36:50.948Z,3.37
2023-03-04T23:39:19.801Z,3.39
2023-03-04T23:41:49.790Z,3.36
2023-03-04T23:44:18.250Z,3.37
2023-03-04T23:46:46.892Z,3.35
2023-03-04T23:49:17.528Z,3.36
2023-03-04T23:51:46.466Z,3.35
2023-03-04T23:54:15.515Z,3.33
2023-03-04T23:56:43.893Z,3.29
2023-03-04T23:59:13.988Z,3.30
